sensor_id;sensor_type;location;lat;lon;timestamp;pressure;altitude;pressure_sealevel;temperature;humidity
1207;BME280;593;53.184;8.216;2022-10-16T00:00:27;100510.47;;;15.02;100.00
1207;BME280;593;53.184;8.216;2022-10-16T00:02:52;100515.63;;;15.03;100.00
1207;BME280;593;53.184;8.216;2022-10-16T00:05:17;100521.91;;;15.04;100.00
1207;BME280;593;53.184;8.216;2022-10-16T00:07:43;100520.31;;;15.03;100.00
1207;BME280;593;53.184;8.216;2022-10-16T00:10:08;100516.41;;;14.95;100.00
1207;BME280;593;53.184;8.216;2022-10-16T00:12:33;100525.28;;;15.01;100.00
1207;BME280;593;53.184;8.216;2022-10-16T00:14:59;100525.13;;;14.97;100.00
1207;BME280;593;53.184;8.216;2022-10-16T00:17:24;100525.94;;;14.98;100.00
1207;BME280;593;53.184;8.216;2022-10-16T00:19:49;100516.22;;;14.92;100.00
1207;BME280;593;53.184;8.216;2022-10-16T00:22:15;100523.94;;;14.90;100.00
1207;BME280;593;53.184;8.216;2022-10-16T00:24:40;100517.97;;;14.88;100.00
1207;BME280;593;53.184;8.216;2022-10-16T00:27:05;100511.81;;;14.82;100.00
1207;BME280;593;53.184;8.216;2022-10-16T00:29:31;100517.59;;;14.81;100.00
1207;BME280;593;53.184;8.216;2022-10-16T00:31:56;100528.13;;;14.87;100.00
1207;BME280;593;53.184;8.216;2022-10-16T00:34:21;100532.78;;;14.87;100.00
1207;BME280;593;53.184;8.216;2022-10-16T00:36:47;100521.63;;;14.83;100.00
1207;BME280;593;53.184;8.216;2022-10-16T00:39:12;100536.97;;;14.84;100.00
1207;BME280;593;53.184;8.216;2022-10-16T00:41:37;100533.25;;;14.80;100.00
1207;BME280;593;53.184;8.216;2022-10-16T00:47:09;100532.22;;;14.76;100.00
1207;BME280;593;53.184;8.216;2022-10-16T00:49:36;100550.78;;;14.79;100.00
1207;BME280;593;53.184;8.216;2022-10-16T00:52:01;100540.78;;;14.74;100.00
1207;BME280;593;53.184;8.216;2022-10-16T00:54:29;100547.84;;;14.75;100.00
1207;BME280;593;53.184;8.216;2022-10-16T00:56:58;100536.09;;;14.75;100.00
1207;BME280;593;53.184;8.216;2022-10-16T01:01:54;100536.72;;;14.72;100.00
1207;BME280;593;53.184;8.216;2022-10-16T01:04:20;100525.59;;;14.68;100.00
1207;BME280;593;53.184;8.216;2022-10-16T01:07:26;100528.31;;;14.68;100.00
1207;BME280;593;53.184;8.216;2022-10-16T01:12:46;100528.94;;;14.65;100.00
1207;BME280;593;53.184;8.216;2022-10-16T01:15:49;100519.94;;;14.65;100.00
1207;BME280;593;53.184;8.216;2022-10-16T01:18:34;100524.13;;;14.62;100.00
1207;BME280;593;53.184;8.216;2022-10-16T01:21:05;100522.00;;;14.59;100.00
1207;BME280;593;53.184;8.216;2022-10-16T01:24:06;100514.88;;;14.58;100.00
1207;BME280;593;53.184;8.216;2022-10-16T01:29:26;100522.31;;;14.58;100.00
1207;BME280;593;53.184;8.216;2022-10-16T01:31:57;100522.63;;;14.56;100.00
1207;BME280;593;53.184;8.216;2022-10-16T01:34:51;100522.13;;;14.54;100.00
1207;BME280;593;53.184;8.216;2022-10-16T01:37:25;100533.41;;;14.53;100.00
1207;BME280;593;53.184;8.216;2022-10-16T01:39:56;100526.91;;;14.49;100.00
1207;BME280;593;53.184;8.216;2022-10-16T01:42:28;100527.41;;;14.51;100.00
1207;BME280;593;53.184;8.216;2022-10-16T01:44:56;100529.66;;;14.49;100.00
1207;BME280;593;53.184;8.216;2022-10-16T01:47:24;100525.59;;;14.46;100.00
1207;BME280;593;53.184;8.216;2022-10-16T01:49:51;100528.81;;;14.48;100.00
1207;BME280;593;53.184;8.216;2022-10-16T01:52:22;100540.09;;;14.47;100.00
1207;BME280;593;53.184;8.216;2022-10-16T01:54:51;100539.28;;;14.46;100.00
1207;BME280;593;53.184;8.216;2022-10-16T01:57:20;100541.41;;;14.49;100.00
1207;BME280;593;53.184;8.216;2022-10-16T01:59:49;100544.97;;;14.50;100.00
1207;BME280;593;53.184;8.216;2022-10-16T02:02:18;100541.09;;;14.51;100.00
1207;BME280;593;53.184;8.216;2022-10-16T02:04:49;100551.53;;;14.49;100.00
1207;BME280;593;53.184;8.216;2022-10-16T02:07:16;100554.59;;;14.47;100.00
1207;BME280;593;53.184;8.216;2022-10-16T02:09:41;100547.69;;;14.50;100.00
1207;BME280;593;53.184;8.216;2022-10-16T02:12:14;100553.97;;;14.50;100.00
1207;BME280;593;53.184;8.216;2022-10-16T02:14:40;100553.97;;;14.50;100.00
1207;BME280;593;53.184;8.216;2022-10-16T02:17:14;100554.47;;;14.52;100.00
1207;BME280;593;53.184;8.216;2022-10-16T02:19:40;100544.75;;;14.46;100.00
1207;BME280;593;53.184;8.216;2022-10-16T02:22:08;100554.28;;;14.49;100.00
1207;BME280;593;53.184;8.216;2022-10-16T02:24:44;100549.94;;;14.48;100.00
1207;BME280;593;53.184;8.216;2022-10-16T02:27:47;100554.28;;;14.49;100.00
1207;BME280;593;53.184;8.216;2022-10-16T02:32:50;100543.34;;;14.49;100.00
1207;BME280;593;53.184;8.216;2022-10-16T02:35:18;100546.88;;;14.49;100.00
1207;BME280;593;53.184;8.216;2022-10-16T02:37:46;100543.34;;;14.49;100.00
1207;BME280;593;53.184;8.216;2022-10-16T02:40:12;100534.63;;;14.47;100.00
1207;BME280;593;53.184;8.216;2022-10-16T02:42:39;100543.66;;;14.47;100.00
1207;BME280;593;53.184;8.216;2022-10-16T02:45:06;100543.66;;;14.47;100.00
1207;BME280;593;53.184;8.216;2022-10-16T02:47:32;100541.53;;;14.44;100.00
1207;BME280;593;53.184;8.216;2022-10-16T02:49:57;100540.44;;;14.45;100.00
1207;BME280;593;53.184;8.216;2022-10-16T02:52:22;100542.34;;;14.45;100.00
1207;BME280;593;53.184;8.216;2022-10-16T02:54:48;100535.84;;;14.41;100.00
1207;BME280;593;53.184;8.216;2022-10-16T02:57:13;100543.44;;;14.44;100.00
1207;BME280;593;53.184;8.216;2022-10-16T02:59:39;100527.28;;;14.34;100.00
1207;BME280;593;53.184;8.216;2022-10-16T03:02:04;100542.97;;;14.42;100.00
1207;BME280;593;53.184;8.216;2022-10-16T03:04:30;100542.47;;;14.40;100.00
1207;BME280;593;53.184;8.216;2022-10-16T03:06:55;100548.75;;;14.40;100.00
1207;BME280;593;53.184;8.216;2022-10-16T03:09:20;100549.38;;;14.37;100.00
1207;BME280;593;53.184;8.216;2022-10-16T03:11:46;100543.09;;;14.37;100.00
1207;BME280;593;53.184;8.216;2022-10-16T03:14:11;100545.00;;;14.36;100.00
1207;BME280;593;53.184;8.216;2022-10-16T03:16:37;100541.78;;;14.34;100.00
1207;BME280;593;53.184;8.216;2022-10-16T03:19:02;100534.56;;;14.38;100.00
1207;BME280;593;53.184;8.216;2022-10-16T03:21:27;100534.56;;;14.38;100.00
1207;BME280;593;53.184;8.216;2022-10-16T03:23:53;100541.97;;;14.38;100.00
1207;BME280;593;53.184;8.216;2022-10-16T03:26:18;100547.44;;;14.38;100.00
1207;BME280;593;53.184;8.216;2022-10-16T03:28:43;100547.44;;;14.38;100.00
1207;BME280;593;53.184;8.216;2022-10-16T03:31:08;100556.16;;;14.40;100.00
1207;BME280;593;53.184;8.216;2022-10-16T03:33:34;100549.88;;;14.39;100.00
1207;BME280;593;53.184;8.216;2022-10-16T03:35:59;100548.22;;;14.38;100.00
1207;BME280;593;53.184;8.216;2022-10-16T03:41:01;100556.44;;;14.38;100.00
1207;BME280;593;53.184;8.216;2022-10-16T03:43:27;100556.44;;;14.38;100.00
1207;BME280;593;53.184;8.216;2022-10-16T03:45:52;100552.91;;;14.38;100.00
1207;BME280;593;53.184;8.216;2022-10-16T03:48:18;100559.00;;;14.35;100.00
1207;BME280;593;53.184;8.216;2022-10-16T03:50:43;100562.72;;;14.39;100.00
1207;BME280;593;53.184;8.216;2022-10-16T03:53:09;100567.59;;;14.42;100.00
1207;BME280;593;53.184;8.216;2022-10-16T03:55:35;100561.44;;;14.36;100.00
1207;BME280;593;53.184;8.216;2022-10-16T03:58:00;100571.97;;;14.43;100.00
1207;BME280;593;53.184;8.216;2022-10-16T04:00:26;100577.44;;;14.43;100.00
1207;BME280;593;53.184;8.216;2022-10-16T04:02:51;100580.94;;;14.43;100.00
1207;BME280;593;53.184;8.216;2022-10-16T04:05:16;100576.13;;;14.40;100.00
1207;BME280;593;53.184;8.216;2022-10-16T04:07:42;100588.53;;;14.46;100.00
1207;BME280;593;53.184;8.216;2022-10-16T04:10:07;100599.50;;;14.46;100.00
1207;BME280;593;53.184;8.216;2022-10-16T04:12:33;100595.94;;;14.46;100.00
1207;BME280;593;53.184;8.216;2022-10-16T04:14:58;100594.84;;;14.47;100.00
1207;BME280;593;53.184;8.216;2022-10-16T04:17:24;100594.50;;;14.48;100.00
1207;BME280;593;53.184;8.216;2022-10-16T04:19:49;100598.88;;;14.49;100.00
1207;BME280;593;53.184;8.216;2022-10-16T04:22:14;100598.88;;;14.49;100.00
1207;BME280;593;53.184;8.216;2022-10-16T04:24:40;100604.03;;;14.51;100.00
1207;BME280;593;53.184;8.216;2022-10-16T04:27:05;100595.81;;;14.51;100.00
1207;BME280;593;53.184;8.216;2022-10-16T04:29:30;100593.63;;;14.53;100.00
1207;BME280;593;53.184;8.216;2022-10-16T04:31:56;100589.75;;;14.54;100.00
1207;BME280;593;53.184;8.216;2022-10-16T04:34:21;100592.19;;;14.55;100.00
1207;BME280;593;53.184;8.216;2022-10-16T04:36:47;100593.78;;;14.56;100.00
1207;BME280;593;53.184;8.216;2022-10-16T04:39:14;100597.34;;;14.57;100.00
1207;BME280;593;53.184;8.216;2022-10-16T04:41:39;100592.34;;;14.59;100.00
1207;BME280;593;53.184;8.216;2022-10-16T04:44:05;100585.56;;;14.56;100.00
1207;BME280;593;53.184;8.216;2022-10-16T04:46:30;100593.97;;;14.60;100.00
1207;BME280;593;53.184;8.216;2022-10-16T04:48:55;100599.47;;;14.60;100.00
1207;BME280;593;53.184;8.216;2022-10-16T04:51:21;100606.84;;;14.59;100.00
1207;BME280;593;53.184;8.216;2022-10-16T04:53:46;100617.47;;;14.61;100.00
1207;BME280;593;53.184;8.216;2022-10-16T04:56:11;100622.97;;;14.61;100.00
1207;BME280;593;53.184;8.216;2022-10-16T04:58:37;100617.47;;;14.61;100.00
1207;BME280;593;53.184;8.216;2022-10-16T05:01:02;100621.84;;;14.62;100.00
1207;BME280;593;53.184;8.216;2022-10-16T05:03:27;100630.88;;;14.62;100.00
1207;BME280;593;53.184;8.216;2022-10-16T05:05:53;100622.34;;;14.64;100.00
1207;BME280;593;53.184;8.216;2022-10-16T05:08:18;100617.69;;;14.64;100.00
1207;BME280;593;53.184;8.216;2022-10-16T05:10:44;100617.69;;;14.64;100.00
1207;BME280;593;53.184;8.216;2022-10-16T05:13:10;100622.34;;;14.64;100.00
1207;BME280;593;53.184;8.216;2022-10-16T05:15:35;100620.41;;;14.64;100.00
1207;BME280;593;53.184;8.216;2022-10-16T05:18:00;100628.75;;;14.59;100.00
1207;BME280;593;53.184;8.216;2022-10-16T05:20:26;100629.44;;;14.65;100.00
1207;BME280;593;53.184;8.216;2022-10-16T05:22:51;100619.94;;;14.62;100.00
1207;BME280;593;53.184;8.216;2022-10-16T05:25:17;100622.84;;;14.66;100.00
1207;BME280;593;53.184;8.216;2022-10-16T05:27:42;100617.19;;;14.62;100.00
1207;BME280;593;53.184;8.216;2022-10-16T05:30:08;100614.25;;;14.59;100.00
1207;BME280;593;53.184;8.216;2022-10-16T05:32:33;100626.72;;;14.65;100.00
1207;BME280;593;53.184;8.216;2022-10-16T05:34:59;100627.81;;;14.64;100.00
1207;BME280;593;53.184;8.216;2022-10-16T05:37:25;100628.63;;;14.64;100.00
1207;BME280;593;53.184;8.216;2022-10-16T05:39:51;100630.22;;;14.65;100.00
1207;BME280;593;53.184;8.216;2022-10-16T05:42:16;100626.72;;;14.65;100.00
1207;BME280;593;53.184;8.216;2022-10-16T05:44:41;100623.06;;;14.56;100.00
1207;BME280;593;53.184;8.216;2022-10-16T05:47:07;100615.31;;;14.49;100.00
1207;BME280;593;53.184;8.216;2022-10-16T05:49:36;100638.59;;;14.60;100.00
1207;BME280;593;53.184;8.216;2022-10-16T05:52:04;100646.50;;;14.62;100.00
1207;BME280;593;53.184;8.216;2022-10-16T05:54:43;100634.34;;;14.54;100.00
1207;BME280;593;53.184;8.216;2022-10-16T05:57:22;100644.91;;;14.47;100.00
1207;BME280;593;53.184;8.216;2022-10-16T05:59:47;100665.66;;;14.62;100.00
1207;BME280;593;53.184;8.216;2022-10-16T06:02:13;100671.63;;;14.64;100.00
1207;BME280;593;53.184;8.216;2022-10-16T06:04:44;100662.91;;;14.62;100.00
1207;BME280;593;53.184;8.216;2022-10-16T06:07:10;100658.25;;;14.62;100.00
1207;BME280;593;53.184;8.216;2022-10-16T06:09:35;100659.84;;;14.63;100.00
1207;BME280;593;53.184;8.216;2022-10-16T06:12:01;100664.50;;;14.63;100.00
1207;BME280;593;53.184;8.216;2022-10-16T06:14:29;100672.44;;;14.64;100.00
1207;BME280;593;53.184;8.216;2022-10-16T06:16:56;100671.94;;;14.62;100.00
1207;BME280;593;53.184;8.216;2022-10-16T06:19:21;100680.16;;;14.62;100.00
1207;BME280;593;53.184;8.216;2022-10-16T06:21:48;100677.09;;;14.64;100.00
1207;BME280;593;53.184;8.216;2022-10-16T06:24:13;100683.38;;;14.64;100.00
1207;BME280;593;53.184;8.216;2022-10-16T06:26:38;100669.31;;;14.57;100.00
1207;BME280;593;53.184;8.216;2022-10-16T06:29:03;100684.81;;;14.62;100.00
1207;BME280;593;53.184;8.216;2022-10-16T06:31:29;100682.19;;;14.57;100.00
1207;BME280;593;53.184;8.216;2022-10-16T06:33:57;100684.13;;;14.56;100.00
1207;BME280;593;53.184;8.216;2022-10-16T06:36:23;100706.72;;;14.62;100.00
1207;BME280;593;53.184;8.216;2022-10-16T06:38:49;100689.09;;;14.54;100.00
1207;BME280;593;53.184;8.216;2022-10-16T06:41:17;100705.09;;;14.61;100.00
1207;BME280;593;53.184;8.216;2022-10-16T06:43:42;100705.91;;;14.61;100.00
1207;BME280;593;53.184;8.216;2022-10-16T06:46:11;100703.97;;;14.62;100.00
1207;BME280;593;53.184;8.216;2022-10-16T06:48:38;100717.06;;;14.65;100.00
1207;BME280;593;53.184;8.216;2022-10-16T06:51:10;100717.84;;;14.65;100.00
1207;BME280;593;53.184;8.216;2022-10-16T06:53:38;100729.63;;;14.66;100.00
1207;BME280;593;53.184;8.216;2022-10-16T06:56:12;100724.13;;;14.66;100.00
1207;BME280;593;53.184;8.216;2022-10-16T06:58:38;100728.78;;;14.65;100.00
1207;BME280;593;53.184;8.216;2022-10-16T07:01:05;100726.97;;;14.61;100.00
1207;BME280;593;53.184;8.216;2022-10-16T07:03:31;100737.81;;;14.66;100.00
1207;BME280;593;53.184;8.216;2022-10-16T07:05:56;100730.75;;;14.65;100.00
1207;BME280;593;53.184;8.216;2022-10-16T07:08:22;100743.28;;;14.66;100.00
1207;BME280;593;53.184;8.216;2022-10-16T07:10:47;100741.38;;;14.66;100.00
1207;BME280;593;53.184;8.216;2022-10-16T07:13:13;100734.69;;;14.59;100.00
1207;BME280;593;53.184;8.216;2022-10-16T07:15:39;100749.28;;;14.68;100.00
1207;BME280;593;53.184;8.216;2022-10-16T07:18:05;100759.63;;;14.71;100.00
1207;BME280;593;53.184;8.216;2022-10-16T07:20:30;100755.28;;;14.70;100.00
1207;BME280;593;53.184;8.216;2022-10-16T07:22:56;100759.31;;;14.72;100.00
1207;BME280;593;53.184;8.216;2022-10-16T07:25:21;100759.31;;;14.72;100.00
1207;BME280;593;53.184;8.216;2022-10-16T07:27:46;100763.38;;;14.75;100.00
1207;BME280;593;53.184;8.216;2022-10-16T07:30:12;100766.91;;;14.75;100.00
1207;BME280;593;53.184;8.216;2022-10-16T07:32:37;100773.69;;;14.78;100.00
1207;BME280;593;53.184;8.216;2022-10-16T07:35:03;100774.22;;;14.80;100.00
1207;BME280;593;53.184;8.216;2022-10-16T07:37:28;100771.97;;;14.82;100.00
1207;BME280;593;53.184;8.216;2022-10-16T07:39:53;100771.88;;;14.87;100.00
1207;BME280;593;53.184;8.216;2022-10-16T07:42:19;100787.16;;;14.88;100.00
1207;BME280;593;53.184;8.216;2022-10-16T07:44:45;100785.56;;;14.87;100.00
1207;BME280;593;53.184;8.216;2022-10-16T07:47:10;100803.47;;;14.93;100.00
1207;BME280;593;53.184;8.216;2022-10-16T07:49:35;100807.84;;;14.94;100.00
1207;BME280;593;53.184;8.216;2022-10-16T07:52:01;100812.22;;;14.95;100.00
1207;BME280;593;53.184;8.216;2022-10-16T07:54:26;100808.84;;;14.98;100.00
1207;BME280;593;53.184;8.216;2022-10-16T07:56:51;100815.34;;;15.02;100.00
1207;BME280;593;53.184;8.216;2022-10-16T07:59:17;100820.22;;;15.05;100.00
1207;BME280;593;53.184;8.216;2022-10-16T08:01:42;100826.47;;;15.06;100.00
1207;BME280;593;53.184;8.216;2022-10-16T08:04:08;100820.91;;;15.11;100.00
1207;BME280;593;53.184;8.216;2022-10-16T08:06:38;100830.44;;;15.13;100.00
1207;BME280;593;53.184;8.216;2022-10-16T08:09:05;100837.22;;;15.16;100.00
1207;BME280;593;53.184;8.216;2022-10-16T08:11:32;100839.66;;;15.17;100.00
1207;BME280;593;53.184;8.216;2022-10-16T08:13:57;100837.09;;;15.21;100.00
1207;BME280;593;53.184;8.216;2022-10-16T08:16:23;100833.47;;;15.25;100.00
1207;BME280;593;53.184;8.216;2022-10-16T08:18:48;100833.25;;;15.22;100.00
1207;BME280;593;53.184;8.216;2022-10-16T08:21:18;100843.78;;;15.28;100.00
1207;BME280;593;53.184;8.216;2022-10-16T08:23:43;100838.50;;;15.32;100.00
1207;BME280;593;53.184;8.216;2022-10-16T08:26:10;100841.44;;;15.35;100.00
1207;BME280;593;53.184;8.216;2022-10-16T08:28:36;100840.81;;;15.38;100.00
1207;BME280;593;53.184;8.216;2022-10-16T08:33:33;100846.97;;;15.44;100.00
1207;BME280;593;53.184;8.216;2022-10-16T08:36:00;100842.84;;;15.47;100.00
1207;BME280;593;53.184;8.216;2022-10-16T08:38:25;100850.47;;;15.50;100.00
1207;BME280;593;53.184;8.216;2022-10-16T08:40:51;100847.09;;;15.53;100.00
1207;BME280;593;53.184;8.216;2022-10-16T08:48:20;100859.56;;;15.59;100.00
1207;BME280;593;53.184;8.216;2022-10-16T08:50:49;100866.06;;;15.63;100.00
1207;BME280;593;53.184;8.216;2022-10-16T08:53:21;100870.41;;;15.64;100.00
1207;BME280;593;53.184;8.216;2022-10-16T08:55:50;100864.78;;;15.69;100.00
1207;BME280;593;53.184;8.216;2022-10-16T08:58:28;100864.38;;;15.75;100.00
1207;BME280;593;53.184;8.216;2022-10-16T09:00:56;100858.88;;;15.75;100.00
1207;BME280;593;53.184;8.216;2022-10-16T09:14:23;100884.63;;;15.88;100.00
1207;BME280;593;53.184;8.216;2022-10-16T09:17:11;100888.69;;;15.90;100.00
1207;BME280;593;53.184;8.216;2022-10-16T09:19:48;100886.13;;;15.94;100.00
1207;BME280;593;53.184;8.216;2022-10-16T09:22:16;100887.13;;;15.98;100.00
1207;BME280;593;53.184;8.216;2022-10-16T09:24:42;100893.59;;;16.02;100.00
1207;BME280;593;53.184;8.216;2022-10-16T09:27:12;100892.66;;;16.07;100.00
1207;BME280;593;53.184;8.216;2022-10-16T09:29:38;100901.09;;;16.10;100.00
1207;BME280;593;53.184;8.216;2022-10-16T09:32:19;100907.88;;;16.13;100.00
1207;BME280;593;53.184;8.216;2022-10-16T09:34:48;100910.28;;;16.14;100.00
1207;BME280;593;53.184;8.216;2022-10-16T09:37:18;100916.28;;;16.16;100.00
1207;BME280;593;53.184;8.216;2022-10-16T09:39:54;100921.16;;;16.19;100.00
1207;BME280;593;53.184;8.216;2022-10-16T09:42:23;100915.53;;;16.24;100.00
1207;BME280;593;53.184;8.216;2022-10-16T09:44:51;100912.09;;;16.19;100.00
1207;BME280;593;53.184;8.216;2022-10-16T09:47:21;100918.47;;;16.28;100.00
1207;BME280;593;53.184;8.216;2022-10-16T09:49:52;100932.88;;;16.33;100.00
1207;BME280;593;53.184;8.216;2022-10-16T09:52:18;100929.97;;;16.38;100.00
1207;BME280;593;53.184;8.216;2022-10-16T09:54:58;100929.69;;;16.40;100.00
1207;BME280;593;53.184;8.216;2022-10-16T09:57:24;100941.63;;;16.44;100.00
1207;BME280;593;53.184;8.216;2022-10-16T09:59:55;100949.59;;;16.45;100.00
1207;BME280;593;53.184;8.216;2022-10-16T10:04:58;100939.56;;;16.49;100.00
1207;BME280;593;53.184;8.216;2022-10-16T10:07:26;100950.31;;;16.59;100.00
1207;BME280;593;53.184;8.216;2022-10-16T10:09:53;100953.56;;;16.61;100.00
1207;BME280;593;53.184;8.216;2022-10-16T10:12:23;100958.25;;;16.61;100.00
1207;BME280;593;53.184;8.216;2022-10-16T10:14:52;100952.94;;;16.64;100.00
1207;BME280;593;53.184;8.216;2022-10-16T10:17:22;100954.56;;;16.65;100.00
1207;BME280;593;53.184;8.216;2022-10-16T10:20:00;100964.13;;;16.68;100.00
1207;BME280;593;53.184;8.216;2022-10-16T10:31:21;100987.56;;;16.74;100.00
1207;BME280;593;53.184;8.216;2022-10-16T10:34:01;100989.34;;;16.79;100.00
1207;BME280;593;53.184;8.216;2022-10-16T10:36:36;100982.75;;;16.80;100.00
1207;BME280;593;53.184;8.216;2022-10-16T10:39:19;100993.41;;;16.81;100.00
1207;BME280;593;53.184;8.216;2022-10-16T10:50:22;101006.56;;;16.93;100.00
1207;BME280;593;53.184;8.216;2022-10-16T10:53:18;101001.91;;;16.93;100.00
1207;BME280;593;53.184;8.216;2022-10-16T10:56:19;100995.13;;;16.99;100.00
1207;BME280;593;53.184;8.216;2022-10-16T11:01:46;101003.84;;;17.01;100.00
1207;BME280;593;53.184;8.216;2022-10-16T11:04:52;100995.78;;;17.05;100.00
1207;BME280;593;53.184;8.216;2022-10-16T11:07:30;101011.34;;;17.09;100.00
1207;BME280;593;53.184;8.216;2022-10-16T11:10:05;101007.75;;;17.09;100.00
1207;BME280;593;53.184;8.216;2022-10-16T11:12:42;101008.78;;;17.13;100.00
1207;BME280;593;53.184;8.216;2022-10-16T11:15:17;101003.28;;;17.13;100.00
1207;BME280;593;53.184;8.216;2022-10-16T11:18:03;101019.63;;;17.18;100.00
1207;BME280;593;53.184;8.216;2022-10-16T11:20:39;101023.97;;;17.19;100.00
1207;BME280;593;53.184;8.216;2022-10-16T11:23:14;101028.34;;;17.20;100.00
1207;BME280;593;53.184;8.216;2022-10-16T11:25:42;101031.94;;;17.20;100.00
1207;BME280;593;53.184;8.216;2022-10-16T11:28:24;101038.22;;;17.21;100.00
1207;BME280;593;53.184;8.216;2022-10-16T11:30:59;101052.47;;;17.23;100.00
1207;BME280;593;53.184;8.216;2022-10-16T11:33:39;101049.22;;;17.21;100.00
1207;BME280;593;53.184;8.216;2022-10-16T11:36:17;101048.72;;;17.19;100.00
1207;BME280;593;53.184;8.216;2022-10-16T11:44:42;101063.41;;;17.14;100.00
1207;BME280;593;53.184;8.216;2022-10-16T11:53:03;101067.34;;;17.22;100.00
1207;BME280;593;53.184;8.216;2022-10-16T11:55:37;101084.31;;;17.24;100.00
1207;BME280;593;53.184;8.216;2022-10-16T12:00:40;101072.69;;;17.18;98.53
1207;BME280;593;53.184;8.216;2022-10-16T12:03:17;101080.94;;;17.27;99.11
1207;BME280;593;53.184;8.216;2022-10-16T12:08:29;101086.13;;;17.28;98.38
1207;BME280;593;53.184;8.216;2022-10-16T12:11:06;101094.38;;;17.28;98.32
1207;BME280;593;53.184;8.216;2022-10-16T12:13:39;101093.59;;;17.28;98.13
1207;BME280;593;53.184;8.216;2022-10-16T12:18:40;101097.13;;;17.28;98.58
1207;BME280;593;53.184;8.216;2022-10-16T12:21:07;101102.31;;;17.30;99.36
1207;BME280;593;53.184;8.216;2022-10-16T12:23:36;101094.50;;;17.23;99.13
1207;BME280;593;53.184;8.216;2022-10-16T12:26:04;101116.88;;;17.30;98.38
1207;BME280;593;53.184;8.216;2022-10-16T12:28:31;101120.41;;;17.31;98.22
1207;BME280;593;53.184;8.216;2022-10-16T12:31:06;101123.16;;;17.31;99.22
1207;BME280;593;53.184;8.216;2022-10-16T12:33:34;101124.31;;;17.30;98.46
1207;BME280;593;53.184;8.216;2022-10-16T12:36:03;101132.22;;;17.23;96.15
1207;BME280;593;53.184;8.216;2022-10-16T12:38:49;101123.50;;;17.29;97.63
1207;BME280;593;53.184;8.216;2022-10-16T12:41:35;101124.75;;;17.23;97.67
1207;BME280;593;53.184;8.216;2022-10-16T12:44:05;101130.94;;;17.29;96.35
1207;BME280;593;53.184;8.216;2022-10-16T12:51:37;101146.19;;;17.35;94.58
1207;BME280;593;53.184;8.216;2022-10-16T12:54:20;101153.63;;;17.35;94.82
1207;BME280;593;53.184;8.216;2022-10-16T13:10:39;101153.47;;;17.40;96.99
1207;BME280;593;53.184;8.216;2022-10-16T13:16:02;101167.78;;;17.50;98.89
1207;BME280;593;53.184;8.216;2022-10-16T13:29:30;101184.25;;;17.72;100.00
1207;BME280;593;53.184;8.216;2022-10-16T13:31:58;101173.88;;;17.69;99.89
1207;BME280;593;53.184;8.216;2022-10-16T13:34:24;101182.34;;;17.81;100.00
1207;BME280;593;53.184;8.216;2022-10-16T13:36:51;101184.94;;;17.86;99.94
1207;BME280;593;53.184;8.216;2022-10-16T13:39:28;101181.22;;;17.82;99.64
1207;BME280;593;53.184;8.216;2022-10-16T13:44:26;101202.63;;;17.94;98.61
1207;BME280;593;53.184;8.216;2022-10-16T13:47:00;101217.53;;;17.93;95.30
1207;BME280;593;53.184;8.216;2022-10-16T13:49:26;101219.16;;;17.94;96.07
1207;BME280;593;53.184;8.216;2022-10-16T13:51:56;101220.97;;;17.99;96.77
1207;BME280;593;53.184;8.216;2022-10-16T13:54:23;101217.22;;;17.94;96.99
1207;BME280;593;53.184;8.216;2022-10-16T13:56:48;101223.19;;;17.97;96.11
1207;BME280;593;53.184;8.216;2022-10-16T13:59:33;101228.56;;;18.02;96.29
1207;BME280;593;53.184;8.216;2022-10-16T14:01:59;101224.69;;;18.03;96.94
1207;BME280;593;53.184;8.216;2022-10-16T14:04:30;101220.97;;;18.07;98.17
1207;BME280;593;53.184;8.216;2022-10-16T14:06:57;101237.50;;;18.07;98.02
1207;BME280;593;53.184;8.216;2022-10-16T14:09:28;101236.69;;;18.07;96.66
1207;BME280;593;53.184;8.216;2022-10-16T14:12:00;101243.00;;;18.07;97.09
1207;BME280;593;53.184;8.216;2022-10-16T14:14:33;101240.59;;;18.06;96.31
1207;BME280;593;53.184;8.216;2022-10-16T14:16:59;101240.59;;;18.06;95.99
1207;BME280;593;53.184;8.216;2022-10-16T14:19:27;101243.34;;;18.06;95.94
1207;BME280;593;53.184;8.216;2022-10-16T14:21:53;101245.41;;;18.00;94.73
1207;BME280;593;53.184;8.216;2022-10-16T14:24:33;101251.09;;;18.04;94.78
1207;BME280;593;53.184;8.216;2022-10-16T14:26:59;101246.84;;;17.98;94.55
1207;BME280;593;53.184;8.216;2022-10-16T14:29:27;101256.09;;;18.02;94.39
1207;BME280;593;53.184;8.216;2022-10-16T14:32:02;101252.72;;;18.05;94.33
1207;BME280;593;53.184;8.216;2022-10-16T14:34:37;101252.72;;;18.05;94.11
1207;BME280;593;53.184;8.216;2022-10-16T14:37:24;101252.56;;;18.01;93.38
1207;BME280;593;53.184;8.216;2022-10-16T14:39:51;101257.41;;;18.04;92.42
1207;BME280;593;53.184;8.216;2022-10-16T14:42:18;101238.59;;;17.98;91.97
1207;BME280;593;53.184;8.216;2022-10-16T14:44:46;101242.81;;;17.95;92.40
1207;BME280;593;53.184;8.216;2022-10-16T14:47:20;101260.81;;;18.01;88.28
1207;BME280;593;53.184;8.216;2022-10-16T14:49:47;101257.38;;;17.96;85.16
1207;BME280;593;53.184;8.216;2022-10-16T14:52:13;101255.25;;;17.92;86.24
1207;BME280;593;53.184;8.216;2022-10-16T14:54:39;101253.28;;;17.84;87.43
1207;BME280;593;53.184;8.216;2022-10-16T14:57:05;101252.28;;;17.80;88.43
1207;BME280;593;53.184;8.216;2022-10-16T15:04:48;101285.19;;;17.85;90.02
1207;BME280;593;53.184;8.216;2022-10-16T15:07:14;101290.97;;;17.84;90.06
1207;BME280;593;53.184;8.216;2022-10-16T15:09:39;101292.44;;;17.81;90.94
1207;BME280;593;53.184;8.216;2022-10-16T15:12:05;101290.50;;;17.82;92.15
1207;BME280;593;53.184;8.216;2022-10-16T15:14:30;101291.63;;;17.81;92.38
1207;BME280;593;53.184;8.216;2022-10-16T15:16:56;101298.59;;;17.78;93.28
1207;BME280;593;53.184;8.216;2022-10-16T15:19:22;101296.13;;;17.77;93.06